Time;durP1;ratioP1;P1;durP2;ratioP2;P2;SDS_P1;SDS_P2;PMS_P1;PMS_P2;Temp;Humidity;BMP_temperature;BMP_pressure;BME280_temperature;BME280_humidity;BME280_pressure;Samples;Min_cycle;Max_cycle;Signal;HPM_P1;HPM_P2
2022/03/05 00:00:35;;;;;;;4.00;2.40;;;;;;;-149.78;100.00;50537.94;4808115;29;20046;-66
2022/03/05 00:03:01;;;;;;;6.45;2.55;;;;;;;-149.78;100.00;50563.38;4822974;29;20042;-65
2022/03/05 00:05:27;;;;;;;2.92;1.95;;;;;;;-149.78;100.00;50569.22;4824213;29;20379;-66
2022/03/05 00:07:53;;;;;;;8.65;2.50;;;;;;;-149.78;100.00;50561.41;4823946;29;20042;-65
2022/03/05 00:10:19;;;;;;;5.63;2.47;;;;;;;-149.78;100.00;50541.84;4825422;29;20045;-66
2022/03/05 00:12:46;;;;;;;5.15;2.40;;;;;;;-149.78;100.00;50580.97;4827689;29;20104;-66
2022/03/05 00:15:11;;;;;;;3.92;2.33;;;;;;;-149.78;100.00;50565.31;4827573;29;20034;-66
2022/03/05 00:17:38;;;;;;;4.57;1.95;;;;;;;-149.78;100.00;50547.72;4811405;29;20105;-66
2022/03/05 00:20:05;;;;;;;5.28;2.28;;;;;;;-149.78;100.00;50555.53;4796160;29;20129;-66
2022/03/05 00:22:32;;;;;;;4.82;1.77;;;;;;;-149.78;100.00;50553.59;4796084;29;20075;-66
2022/03/05 00:24:58;;;;;;;5.57;2.15;;;;;;;-149.78;100.00;50557.50;4819454;29;20044;-65
2022/03/05 00:27:24;;;;;;;4.45;2.15;;;;;;;-149.78;100.00;50604.44;4809259;29;20043;-66
2022/03/05 00:29:50;;;;;;;10.07;1.85;;;;;;;-149.78;100.00;50596.63;4809186;29;20519;-66
2022/03/05 00:32:16;;;;;;;4.38;1.80;;;;;;;-149.78;100.00;50537.94;4808038;29;20062;-66
2022/03/05 00:34:41;;;;;;;4.78;1.90;;;;;;;-149.78;100.00;50588.78;4792639;29;20035;-66
2022/03/05 00:37:08;;;;;;;7.25;2.63;;;;;;;-149.78;100.00;50555.53;4809093;29;20400;-66
2022/03/05 00:39:34;;;;;;;11.13;2.22;;;;;;;-149.78;100.00;50563.38;4809034;29;20099;-66
2022/03/05 00:42:00;;;;;;;6.63;1.60;;;;;;;-149.78;100.00;50563.38;4792943;29;20042;-66
2022/03/05 00:44:25;;;;;;;7.88;1.75;;;;;;;-149.78;100.00;50573.16;4809127;29;20031;-66
2022/03/05 00:46:51;;;;;;;6.68;1.70;;;;;;;-149.78;100.00;50573.16;4792868;29;20381;-66
2022/03/05 00:49:17;;;;;;;6.05;1.45;;;;;;;-149.78;100.00;50561.41;4792922;29;20043;-66
2022/03/05 00:51:43;;;;;;;4.15;1.60;;;;;;;-149.78;100.00;50580.97;4808934;29;20559;-65
2022/03/05 00:54:09;;;;;;;3.13;1.70;;;;;;;-149.78;100.00;50561.41;4792689;29;20154;-65
2022/03/05 00:56:35;;;;;;;5.65;1.60;;;;;;;-149.78;100.00;50549.69;4807680;29;20134;-66
2022/03/05 00:59:01;;;;;;;7.78;2.25;;;;;;;-149.78;100.00;50586.84;4821906;29;20038;-66
2022/03/05 01:01:27;;;;;;;6.88;1.60;;;;;;;-149.78;100.00;50530.13;4826780;29;20518;-66
2022/03/05 01:03:53;;;;;;;11.73;1.92;;;;;;;-149.78;100.00;50561.41;4810481;29;20130;-66
2022/03/05 01:06:19;;;;;;;3.17;1.60;;;;;;;-149.78;100.00;50549.69;4826710;29;20060;-66
2022/03/05 01:08:44;;;;;;;7.38;1.90;;;;;;;-149.78;100.00;50565.31;4826536;29;20509;-66
2022/03/05 01:11:15;;;;;;;4.80;1.65;;;;;;;-149.78;100.00;50577.06;4826687;29;20089;-66
2022/03/05 01:13:41;;;;;;;4.68;1.52;;;;;;;-149.78;100.00;50557.50;4810225;29;20042;-66
2022/03/05 01:16:06;;;;;;;4.40;1.48;;;;;;;-149.78;100.00;50571.19;4826421;29;20117;-66
2022/03/05 01:18:32;;;;;;;5.43;1.50;;;;;;;-149.78;100.00;50592.72;4810479;29;20042;-66
2022/03/05 01:21:00;;;;;;;4.28;1.45;;;;;;;-149.78;100.00;50522.28;4824872;29;20131;-66
2022/03/05 01:23:26;;;;;;;4.45;1.35;;;;;;;-149.78;100.00;50532.06;4809535;29;20069;-66
2022/03/05 01:25:52;;;;;;;4.13;1.73;;;;;;;-149.78;100.00;50563.38;4811651;29;20475;-66
2022/03/05 01:28:19;;;;;;;6.75;1.55;;;;;;;-149.78;100.00;50526.22;4808004;29;20042;-66
2022/03/05 01:30:45;;;;;;;4.60;1.38;;;;;;;-149.78;100.00;50545.75;4808174;29;20051;-66
2022/03/05 01:33:15;;;;;;;7.00;1.15;;;;;;;-149.78;100.00;50582.94;4806871;29;20088;-66
2022/03/05 01:35:44;;;;;;;4.57;1.40;;;;;;;-149.78;100.00;50551.63;4808129;29;20039;-66
2022/03/05 01:38:11;;;;;;;6.55;1.50;;;;;;;-149.78;100.00;50588.78;4791880;29;20125;-66
2022/03/05 01:40:41;;;;;;;5.03;1.33;;;;;;;-149.78;100.00;50532.06;4806823;29;20034;-66
2022/03/05 01:43:07;;;;;;;4.25;1.42;;;;;;;-149.78;100.00;50561.41;4792026;29;20375;-66
2022/03/05 01:45:33;;;;;;;6.68;1.23;;;;;;;-149.78;100.00;50596.63;4807015;29;20474;-66
2022/03/05 01:47:59;;;;;;;4.68;1.42;;;;;;;-149.78;100.00;50553.59;4807995;29;20041;-67
2022/03/05 01:50:26;;;;;;;3.53;1.50;;;;;;;-149.78;100.00;50535.97;4806719;29;20041;-66
2022/03/05 01:52:52;;;;;;;7.68;1.58;;;;;;;-149.78;100.00;50545.75;4806683;29;20078;-66
2022/03/05 01:55:18;;;;;;;4.07;1.40;;;;;;;-149.78;100.00;50530.13;4807949;29;20066;-66
2022/03/05 01:57:43;;;;;;;4.82;1.85;;;;;;;-149.78;100.00;50549.69;4812457;29;20038;-66
2022/03/05 02:00:11;;;;;;;2.65;1.02;;;;;;;-149.78;100.00;50573.16;4825898;29;20042;-66
2022/03/05 02:02:36;;;;;;;4.63;1.30;;;;;;;-149.78;100.00;50561.41;4819409;29;20047;-66
2022/03/05 02:05:03;;;;;;;3.97;1.35;;;;;;;-149.78;100.00;50541.84;4802523;29;20043;-66
2022/03/05 02:07:30;;;;;;;2.97;1.15;;;;;;;-149.78;100.00;50565.31;4817635;29;20082;-66
2022/03/05 02:09:55;;;;;;;4.53;1.30;;;;;;;-149.78;100.00;50565.31;4819118;29;20035;-65
2022/03/05 02:12:28;;;;;;;5.18;1.13;;;;;;;-149.78;100.00;50557.50;4798311;29;20476;-67
2022/03/05 02:14:55;;;;;;;9.77;2.05;;;;;;;-149.78;100.00;50557.50;4807625;29;20073;-66
2022/03/05 02:17:21;;;;;;;3.30;1.20;;;;;;;-149.78;100.00;50575.09;4801049;29;20040;-66
2022/03/05 02:19:48;;;;;;;6.80;1.63;;;;;;;-149.78;100.00;50557.50;4793238;29;20054;-66
2022/03/05 02:22:13;;;;;;;3.47;1.08;;;;;;;-149.78;100.00;50534.03;4822386;29;20399;-66
2022/03/05 02:24:40;;;;;;;6.13;1.20;;;;;;;-149.78;100.00;50553.59;4821013;29;20035;-67
2022/03/05 02:27:06;;;;;;;5.50;1.15;;;;;;;-149.78;100.00;50537.94;4824402;29;20488;-66
2022/03/05 02:29:33;;;;;;;6.75;1.27;;;;;;;-149.78;100.00;50571.19;4825450;29;20074;-66
2022/03/05 02:31:59;;;;;;;8.02;1.05;;;;;;;-149.78;100.00;50565.31;4815447;29;20050;-66
2022/03/05 02:34:25;;;;;;;2.42;1.00;;;;;;;-149.78;100.00;50614.22;4805637;29;20046;-66
2022/03/05 02:36:50;;;;;;;5.45;1.05;;;;;;;-149.78;100.00;50553.59;4810539;29;20049;-66
2022/03/05 02:39:16;;;;;;;4.40;1.40;;;;;;;-149.78;100.00;50553.59;4807982;29;20057;-66
2022/03/05 02:41:43;;;;;;;6.30;1.10;;;;;;;-149.78;100.00;50592.72;4818892;29;20043;-66
2022/03/05 02:44:09;;;;;;;1.95;0.90;;;;;;;-149.78;100.00;50582.94;4807171;29;20092;-67
2022/03/05 02:46:35;;;;;;;3.10;1.02;;;;;;;-149.78;100.00;50545.75;4790824;29;20680;-66
2022/03/05 02:49:03;;;;;;;4.70;0.70;;;;;;;-149.78;100.00;50532.06;4806829;29;20039;-66
2022/03/05 02:51:30;;;;;;;6.85;1.33;;;;;;;-149.78;100.00;50530.13;4807038;29;20039;-67
2022/03/05 02:53:55;;;;;;;4.25;1.38;;;;;;;-149.78;100.00;50573.16;4806816;29;20038;-66
2022/03/05 02:56:23;;;;;;;3.63;1.05;;;;;;;-149.78;100.00;50561.41;4806847;29;20039;-66
2022/03/05 02:58:49;;;;;;;5.00;1.75;;;;;;;-149.78;100.00;50557.50;4790755;29;20357;-66
2022/03/05 03:01:14;;;;;;;4.50;0.95;;;;;;;-149.78;100.00;50584.88;4806882;29;20055;-66
2022/03/05 03:03:40;;;;;;;4.88;0.93;;;;;;;-149.78;100.00;50549.69;4806626;29;20080;-66
2022/03/05 03:06:08;;;;;;;6.15;0.82;;;;;;;-149.78;100.00;50549.69;4806825;29;20047;-66
2022/03/05 03:08:34;;;;;;;2.08;1.10;;;;;;;-149.78;100.00;50580.97;4804872;29;20039;-66
2022/03/05 03:11:00;;;;;;;4.47;1.00;;;;;;;-149.78;100.00;50516.44;4806146;29;20043;-66
2022/03/05 03:13:26;;;;;;;4.95;1.00;;;;;;;-149.78;100.00;50600.53;4806343;29;20479;-66
2022/03/05 03:15:51;;;;;;;4.60;1.25;;;;;;;-149.78;100.00;50557.50;4820507;29;20042;-66
2022/03/05 03:18:17;;;;;;;3.58;1.00;;;;;;;-149.78;100.00;50541.84;4824988;29;20121;-66
2022/03/05 03:20:43;;;;;;;2.53;0.98;;;;;;;-149.78;100.00;50573.16;4824991;29;20034;-66
2022/03/05 03:23:10;;;;;;;5.55;1.20;;;;;;;-149.78;100.00;50549.69;4815240;29;20117;-66
2022/03/05 03:25:38;;;;;;;2.78;1.00;;;;;;;-149.78;100.00;50577.06;4806839;29;20031;-66
2022/03/05 03:28:05;;;;;;;3.70;1.17;;;;;;;-149.78;100.00;50565.31;4806785;29;20035;-66
2022/03/05 03:30:31;;;;;;;4.82;1.20;;;;;;;-149.78;100.00;50549.69;4806740;29;20042;-66
2022/03/05 03:32:57;;;;;;;5.13;1.30;;;;;;;-149.78;100.00;50577.06;4806428;29;20055;-66
2022/03/05 03:35:23;;;;;;;2.35;1.10;;;;;;;-149.78;100.00;50577.06;4805282;29;20093;-66
2022/03/05 03:37:49;;;;;;;4.35;0.95;;;;;;;-149.78;100.00;50569.22;4806390;29;20045;-66
2022/03/05 03:40:17;;;;;;;7.60;1.13;;;;;;;-149.78;100.00;50561.41;4806348;29;20042;-66
2022/03/05 03:42:45;;;;;;;1.85;0.90;;;;;;;-149.78;100.00;50575.09;4805413;29;20042;-66
2022/03/05 03:45:12;;;;;;;5.82;0.90;;;;;;;-149.78;100.00;50582.94;4805556;29;20088;-66
2022/03/05 03:47:39;;;;;;;4.63;0.73;;;;;;;-149.78;100.00;50606.41;4806313;29;20536;-67
2022/03/05 03:50:06;;;;;;;8.52;1.30;;;;;;;-149.78;100.00;50545.75;4806360;29;20073;-66
2022/03/05 03:52:32;;;;;;;3.67;1.23;;;;;;;-149.78;100.00;50580.97;4806276;29;20050;-67
2022/03/05 03:54:58;;;;;;;4.80;0.90;;;;;;;-149.78;100.00;50553.59;4806262;29;20081;-67
2022/03/05 03:57:24;;;;;;;3.60;0.75;;;;;;;-149.78;100.00;50549.69;4790109;29;20050;-66
2022/03/05 03:59:51;;;;;;;3.45;1.10;;;;;;;-149.78;100.00;50584.88;4805123;29;20043;-66
2022/03/05 04:02:19;;;;;;;3.28;1.10;;;;;;;-149.78;100.00;50577.06;4790143;29;20039;-66
2022/03/05 04:04:45;;;;;;;4.75;1.10;;;;;;;-149.78;100.00;50573.16;4804941;29;20045;-66
2022/03/05 04:09:55;;;;;;;4.45;0.88;;;;;;;-149.78;100.00;50561.41;4805985;29;20035;-66
2022/03/05 04:12:21;;;;;;;7.47;1.23;;;;;;;-149.78;100.00;50549.69;4789923;29;20414;-67
2022/03/05 04:14:48;;;;;;;1.70;0.82;;;;;;;-149.78;100.00;50561.41;4811769;29;20074;-67
2022/03/05 04:17:15;;;;;;;4.38;0.85;;;;;;;-149.78;100.00;50565.31;4824237;29;20058;-67
2022/03/05 04:19:40;;;;;;;6.70;1.42;;;;;;;-149.78;100.00;50573.16;4824138;29;20039;-66
2022/03/05 04:22:06;;;;;;;1.88;0.90;;;;;;;-149.78;100.00;50580.97;4822279;29;20057;-66
2022/03/05 04:24:32;;;;;;;5.53;1.10;;;;;;;-149.78;100.00;50557.50;4805842;29;20034;-67
2022/03/05 04:26:57;;;;;;;6.53;1.10;;;;;;;-149.78;100.00;50604.44;4805973;29;20380;-66
2022/03/05 04:29:23;;;;;;;4.80;1.00;;;;;;;-149.78;100.00;50569.22;4789520;29;20042;-67
2022/03/05 04:31:49;;;;;;;1.65;0.70;;;;;;;-149.78;100.00;50584.88;4789455;29;20055;-66
2022/03/05 04:34:15;;;;;;;6.35;2.25;;;;;;;-149.78;100.00;50588.78;4805920;29;20122;-67
2022/03/05 04:36:41;;;;;;;2.75;0.77;;;;;;;-149.78;100.00;50592.72;4805759;29;20122;-66
2022/03/05 04:39:07;;;;;;;6.30;0.85;;;;;;;-149.78;100.00;50565.31;4805616;29;20097;-66
2022/03/05 04:41:32;;;;;;;6.57;1.00;;;;;;;-149.78;100.00;50553.59;4805712;29;20050;-66
2022/03/05 04:44:00;;;;;;;5.22;1.10;;;;;;;-149.78;100.00;50573.16;4789860;29;20043;-66
2022/03/05 04:46:26;;;;;;;2.40;1.08;;;;;;;-149.78;100.00;50577.06;4805492;29;20096;-67
2022/03/05 04:48:52;;;;;;;2.20;0.82;;;;;;;-149.78;100.00;50565.31;4804511;29;20050;-66
2022/03/05 04:51:18;;;;;;;5.70;0.90;;;;;;;-149.78;100.00;50592.72;4805488;29;20122;-66
2022/03/05 04:53:44;;;;;;;7.20;0.75;;;;;;;-149.78;100.00;50610.31;4805362;29;20502;-67
2022/03/05 04:56:10;;;;;;;4.10;0.80;;;;;;;-149.78;100.00;50553.59;4806426;29;20043;-67
2022/03/05 04:58:35;;;;;;;5.50;0.77;;;;;;;-149.78;100.00;50590.75;4792574;29;20506;-67
2022/03/05 05:01:04;;;;;;;7.00;1.00;;;;;;;-149.78;100.00;50577.06;4792616;29;20043;-66
2022/03/05 05:03:29;;;;;;;3.72;0.90;;;;;;;-149.78;100.00;50561.41;4808618;29;20054;-66
2022/03/05 05:05:56;;;;;;;4.50;0.88;;;;;;;-149.78;100.00;50577.06;4808780;29;20038;-67
2022/03/05 05:08:22;;;;;;;2.15;0.80;;;;;;;-149.78;100.00;50557.50;4808717;29;20495;-66
2022/03/05 05:10:47;;;;;;;6.05;0.95;;;;;;;-149.78;100.00;50577.06;4808620;29;20137;-66
2022/03/05 05:13:13;;;;;;;3.70;0.90;;;;;;;-149.78;100.00;50569.22;4807437;29;20043;-66
2022/03/05 05:15:39;;;;;;;7.15;0.90;;;;;;;-149.78;100.00;50588.78;4820735;29;20038;-67
2022/03/05 05:18:04;;;;;;;2.90;0.60;;;;;;;-149.78;100.00;50559.47;4826454;29;20038;-67
2022/03/05 05:20:30;;;;;;;6.65;0.70;;;;;;;-149.78;100.00;50622.03;4826501;29;20084;-66
2022/03/05 05:22:56;;;;;;;2.15;0.70;;;;;;;-149.78;100.00;50588.78;4818219;29;20096;-66
2022/03/05 05:25:22;;;;;;;3.47;0.70;;;;;;;-149.78;100.00;50610.31;4808291;29;20559;-67
2022/03/05 05:27:48;;;;;;;3.70;0.70;;;;;;;-149.78;100.00;50582.94;4807018;29;20099;-66
2022/03/05 05:30:13;;;;;;;4.63;1.02;;;;;;;-149.78;100.00;50584.88;4808350;29;20043;-67
2022/03/05 05:32:39;;;;;;;3.65;0.85;;;;;;;-149.78;100.00;50534.03;4808331;29;20079;-67
2022/03/05 05:35:05;;;;;;;4.55;2.10;;;;;;;-149.78;100.00;50596.63;4808254;29;20486;-67
2022/03/05 05:37:30;;;;;;;4.25;0.60;;;;;;;-149.78;100.00;50557.50;4808140;29;20094;-67
2022/03/05 05:39:57;;;;;;;3.63;0.82;;;;;;;-149.78;100.00;50584.88;4808058;29;20125;-67
2022/03/05 05:42:23;;;;;;;7.22;0.90;;;;;;;-149.78;100.00;50573.16;4806983;29;20034;-67
2022/03/05 05:44:48;;;;;;;6.85;1.20;;;;;;;-149.78;100.00;50580.97;4808090;29;20445;-67
2022/03/05 05:47:15;;;;;;;1.38;1.02;;;;;;;-149.78;100.00;50569.22;4820163;29;20527;-67
2022/03/05 05:49:41;;;;;;;4.57;0.77;;;;;;;-149.78;100.00;50584.88;4824969;29;20042;-67
2022/03/05 05:52:06;;;;;;;8.60;1.02;;;;;;;-149.78;100.00;50579.00;4826073;29;20188;-67
2022/03/05 05:54:33;;;;;;;4.53;0.70;;;;;;;-149.78;100.00;50577.06;4809742;29;20464;-67
2022/03/05 05:56:58;;;;;;;3.47;0.80;;;;;;;-149.78;100.00;50569.22;4825867;29;20030;-67
2022/03/05 05:59:24;;;;;;;4.57;0.73;;;;;;;-149.78;100.00;50616.19;4809713;29;20079;-67
2022/03/05 06:01:50;;;;;;;5.38;0.70;;;;;;;-149.78;100.00;50565.31;4809755;29;20129;-67
2022/03/05 06:04:15;;;;;;;1.83;0.80;;;;;;;-149.78;100.00;50579.00;4824817;29;20042;-67
2022/03/05 06:06:41;;;;;;;5.75;1.00;;;;;;;-149.78;100.00;50565.31;4825842;29;20049;-66
2022/03/05 06:09:07;;;;;;;8.98;1.33;;;;;;;-149.78;100.00;50584.88;4825075;29;20039;-66
2022/03/05 06:11:33;;;;;;;2.13;0.93;;;;;;;-149.78;100.00;50573.16;4822987;29;20049;-68
2022/03/05 06:13:58;;;;;;;4.75;0.80;;;;;;;-149.78;100.00;50534.03;4806448;29;20050;-67
2022/03/05 06:16:24;;;;;;;4.68;0.77;;;;;;;-149.78;100.00;50557.50;4809474;29;20069;-67
2022/03/05 06:18:50;;;;;;;4.78;0.80;;;;;;;-149.78;100.00;50549.69;4825870;29;20498;-67
2022/03/05 06:21:15;;;;;;;3.15;0.70;;;;;;;-149.78;100.00;50549.69;4824377;29;20050;-66
2022/03/05 06:23:41;;;;;;;4.90;1.08;;;;;;;-149.78;100.00;50580.97;4810751;29;20131;-67
2022/03/05 06:26:08;;;;;;;5.88;0.80;;;;;;;-149.78;100.00;50596.63;4807272;29;20039;-67
2022/03/05 06:28:34;;;;;;;7.45;1.17;;;;;;;-149.78;100.00;50534.03;4790900;29;20529;-67
2022/03/05 06:31:00;;;;;;;7.15;0.90;;;;;;;-149.78;100.00;50592.72;4807378;29;20038;-66
2022/03/05 06:33:26;;;;;;;10.90;1.17;;;;;;;-149.78;100.00;50571.19;4802092;29;20078;-67
2022/03/05 06:35:53;;;;;;;3.42;0.80;;;;;;;-149.78;100.00;50577.06;4799639;29;20034;-71
2022/03/05 06:38:19;;;;;;;2.85;0.88;;;;;;;-149.78;100.00;50598.56;4798882;29;20110;-71
2022/03/05 06:40:45;;;;;;;6.25;1.02;;;;;;;-149.78;100.00;50590.75;4787653;29;20053;-72
2022/03/05 06:43:11;;;;;;;6.13;1.40;;;;;;;-149.78;100.00;50526.22;4805952;29;20171;-71
2022/03/05 06:45:37;;;;;;;3.58;0.73;;;;;;;-149.78;100.00;50565.31;4801168;29;20376;-72
2022/03/05 06:48:04;;;;;;;8.05;1.08;;;;;;;-149.78;100.00;50575.09;4794015;29;20057;-71
2022/03/05 06:50:29;;;;;;;6.32;1.33;;;;;;;-149.78;100.00;50614.22;4797879;29;20164;-72
2022/03/05 06:52:55;;;;;;;3.70;0.80;;;;;;;-149.78;100.00;50573.16;4786728;29;20122;-72
2022/03/05 06:55:21;;;;;;;3.75;1.05;;;;;;;-149.78;100.00;50561.41;4780635;29;20399;-72
2022/03/05 06:57:47;;;;;;;5.00;0.90;;;;;;;-149.78;100.00;50561.41;4789131;29;20042;-72
2022/03/05 07:00:14;;;;;;;8.10;1.50;;;;;;;-149.78;100.00;50557.50;4787896;29;20046;-72
2022/03/05 07:02:40;;;;;;;4.68;1.02;;;;;;;-149.78;100.00;50588.78;4803741;29;20042;-72
2022/03/05 07:05:06;;;;;;;2.28;0.90;;;;;;;-149.78;100.00;50557.50;4799927;29;20053;-72
2022/03/05 07:07:31;;;;;;;8.07;1.30;;;;;;;-149.78;100.00;50555.53;4802329;29;20036;-72
2022/03/05 07:09:57;;;;;;;5.25;1.08;;;;;;;-149.78;100.00;50600.53;4783067;29;20042;-71
2022/03/05 07:12:23;;;;;;;5.78;1.10;;;;;;;-149.78;100.00;50549.69;4788232;29;20061;-71
2022/03/05 07:14:51;;;;;;;5.72;0.82;;;;;;;-149.78;100.00;50557.50;4801044;29;20388;-72
2022/03/05 07:17:17;;;;;;;6.88;1.27;;;;;;;-149.78;100.00;50596.63;4802643;29;20062;-71
2022/03/05 07:19:43;;;;;;;5.30;0.95;;;;;;;-149.78;100.00;50579.00;4796183;29;20062;-72
2022/03/05 07:22:08;;;;;;;4.13;0.80;;;;;;;-149.78;100.00;50584.88;4772732;29;20046;-72
2022/03/05 07:24:34;;;;;;;7.03;1.00;;;;;;;-149.78;100.00;50569.22;4802361;29;20034;-71
2022/03/05 07:27:00;;;;;;;7.43;1.00;;;;;;;-149.78;100.00;50561.41;4801829;29;20077;-71
2022/03/05 07:29:26;;;;;;;4.10;0.88;;;;;;;-149.78;100.00;50545.75;4800276;29;20081;-72
2022/03/05 07:31:52;;;;;;;4.63;0.98;;;;;;;-149.78;100.00;50549.69;4800222;29;20082;-72
2022/03/05 07:34:17;;;;;;;9.27;1.17;;;;;;;-149.78;100.00;50584.88;4787096;29;20039;-72
2022/03/05 07:36:43;;;;;;;3.65;1.08;;;;;;;-149.78;100.00;50553.59;4802070;29;20035;-71
2022/03/05 07:39:09;;;;;;;5.75;1.38;;;;;;;-149.78;100.00;50600.53;4800460;29;20039;-71
2022/03/05 07:41:36;;;;;;;7.00;1.30;;;;;;;-149.78;100.00;50573.16;4801909;29;20513;-71
2022/03/05 07:44:03;;;;;;;6.60;1.65;;;;;;;-149.78;100.00;50563.38;4798093;29;20034;-72
2022/03/05 07:46:29;;;;;;;6.43;1.00;;;;;;;-149.78;100.00;50561.41;4798999;29;20034;-72
2022/03/05 07:48:54;;;;;;;9.68;1.38;;;;;;;-149.78;100.00;50561.41;4795343;29;20531;-71
2022/03/05 07:51:22;;;;;;;4.35;1.23;;;;;;;-149.78;100.00;50545.75;4778581;29;20066;-71
2022/03/05 07:53:47;;;;;;;4.90;0.73;;;;;;;-149.78;100.00;50577.06;4790924;29;20046;-71
2022/03/05 07:56:13;;;;;;;3.28;1.17;;;;;;;-149.78;100.00;50563.38;4788451;29;20042;-67
2022/03/05 07:58:39;;;;;;;8.90;1.92;;;;;;;-149.78;100.00;50559.47;4803063;29;20035;-67
2022/03/05 08:01:05;;;;;;;10.10;1.00;;;;;;;-149.78;100.00;50569.22;4800221;29;20117;-67
2022/03/05 08:03:30;;;;;;;3.92;0.80;;;;;;;-149.78;100.00;50555.53;4800295;29;20051;-68
2022/03/05 08:05:56;;;;;;;6.22;1.00;;;;;;;-149.78;100.00;50541.84;4805972;29;20068;-67
2022/03/05 08:08:22;;;;;;;10.15;1.40;;;;;;;-149.78;100.00;50575.09;4806080;29;20043;-69
2022/03/05 08:10:47;;;;;;;3.42;0.90;;;;;;;-149.78;100.00;50539.91;4803358;29;20074;-67
2022/03/05 08:13:13;;;;;;;4.93;0.90;;;;;;;-149.78;100.00;50612.25;4805382;29;20038;-67
2022/03/05 08:15:39;;;;;;;6.10;1.17;;;;;;;-149.78;100.00;50528.16;4818042;29;20034;-67
2022/03/05 08:18:05;;;;;;;7.05;1.42;;;;;;;-149.78;100.00;50543.81;4806626;29;20042;-66
2022/03/05 08:20:32;;;;;;;4.03;0.95;;;;;;;-149.78;100.00;50571.19;4804777;29;20039;-68
2022/03/05 08:22:58;;;;;;;9.43;2.95;;;;;;;-149.78;100.00;50526.22;4799538;29;20130;-67
2022/03/05 08:25:25;;;;;;;3.78;1.00;;;;;;;-149.78;100.00;50543.81;4798800;29;20039;-68
2022/03/05 08:27:51;;;;;;;5.93;1.00;;;;;;;-149.78;100.00;50553.59;4784599;29;20062;-68
2022/03/05 08:30:17;;;;;;;8.43;1.30;;;;;;;-149.78;100.00;50573.16;4796918;29;20055;-68
2022/03/05 08:32:43;;;;;;;7.43;1.20;;;;;;;-149.78;100.00;50545.75;4802902;29;20150;-68
2022/03/05 08:35:10;;;;;;;5.05;1.38;;;;;;;-149.78;100.00;50563.38;4785611;29;20031;-68
2022/03/05 08:37:36;;;;;;;11.95;2.05;;;;;;;-149.78;100.00;50545.75;4789128;29;20031;-67
2022/03/05 08:40:04;;;;;;;7.03;1.00;;;;;;;-149.78;100.00;50594.66;4795233;29;20130;-68
2022/03/05 08:42:30;;;;;;;3.78;1.00;;;;;;;-149.78;100.00;50563.38;4799288;29;20039;-68
2022/03/05 08:44:56;;;;;;;7.03;1.67;;;;;;;-149.78;100.00;50547.72;4803833;29;20114;-66
2022/03/05 08:47:22;;;;;;;7.75;1.30;;;;;;;-149.78;100.00;50553.59;4803626;29;20041;-67
2022/03/05 08:49:47;;;;;;;7.82;1.17;;;;;;;-149.78;100.00;50555.53;4807096;29;20057;-68
2022/03/05 08:52:13;;;;;;;5.70;1.30;;;;;;;-149.78;100.00;50545.75;4788862;29;20076;-68
2022/03/05 08:54:39;;;;;;;6.32;1.00;;;;;;;-149.78;100.00;50553.59;4793923;29;20062;-65
2022/03/05 08:57:08;;;;;;;7.20;1.02;;;;;;;-149.78;100.00;50526.22;4801987;29;20045;-65
2022/03/05 08:59:35;;;;;;;14.93;0.98;;;;;;;-149.78;100.00;50530.13;4800840;29;20027;-65
2022/03/05 09:02:01;;;;;;;8.82;1.40;;;;;;;-149.78;100.00;50586.84;4799131;29;20043;-68
2022/03/05 09:04:27;;;;;;;8.68;2.08;;;;;;;-149.78;100.00;50545.75;4801427;29;20043;-65
2022/03/05 09:06:53;;;;;;;3.72;1.10;;;;;;;-149.78;100.00;50549.69;4800283;29;20155;-66
2022/03/05 09:09:20;;;;;;;8.00;1.10;;;;;;;-149.78;100.00;50573.16;4797784;29;20065;-66
2022/03/05 09:11:45;;;;;;;5.97;1.70;;;;;;;-149.78;100.00;50530.13;4799020;29;20524;-67
2022/03/05 09:14:11;;;;;;;8.30;1.20;;;;;;;-149.78;100.00;50569.22;4796119;29;20392;-66
2022/03/05 09:16:40;;;;;;;13.60;1.42;;;;;;;-149.78;100.00;50510.56;4786942;29;20035;-67
2022/03/05 09:19:07;;;;;;;9.30;1.27;;;;;;;-149.78;100.00;50553.59;4797068;29;20039;-68
2022/03/05 09:21:37;;;;;;;4.63;1.25;;;;;;;-149.78;100.00;50528.16;4797476;29;20089;-71
2022/03/05 09:24:04;;;;;;;9.88;1.25;;;;;;;-149.78;100.00;50537.94;4798106;29;20031;-66
2022/03/05 09:26:30;;;;;;;3.83;1.80;;;;;;;-149.78;100.00;50596.63;4801531;29;20528;-66
2022/03/05 09:28:56;;;;;;;3.90;1.20;;;;;;;-149.78;100.00;50573.16;4794926;29;20419;-67
2022/03/05 09:31:21;;;;;;;4.45;1.55;;;;;;;-149.78;100.00;50569.22;4803066;29;20129;-68
2022/03/05 09:33:47;;;;;;;6.65;1.80;;;;;;;-149.78;100.00;50537.94;4800726;29;20067;-70
2022/03/05 09:36:12;;;;;;;10.57;1.40;;;;;;;-149.78;100.00;50545.75;4790434;29;20043;-69
2022/03/05 09:38:39;;;;;;;10.68;2.58;;;;;;;-149.78;100.00;50551.63;4783416;29;20062;-67
2022/03/05 09:41:06;;;;;;;8.05;1.23;;;;;;;-149.78;100.00;50582.94;4790997;29;20043;-68
2022/03/05 09:43:33;;;;;;;8.52;1.45;;;;;;;-149.78;100.00;50535.97;4793392;29;20126;-67
2022/03/05 09:46:00;;;;;;;5.47;1.17;;;;;;;-149.78;100.00;50553.59;4794396;29;20054;-68
2022/03/05 09:48:27;;;;;;;6.63;1.38;;;;;;;-149.78;100.00;50569.22;4797214;29;20042;-68
2022/03/05 09:50:55;;;;;;;10.18;1.38;;;;;;;-149.78;100.00;50526.22;4800590;29;20047;-67
2022/03/05 09:53:21;;;;;;;5.25;1.17;;;;;;;-149.78;100.00;50526.22;4801706;29;20041;-68
2022/03/05 09:55:50;;;;;;;6.82;1.40;;;;;;;-149.78;100.00;50532.06;4804212;29;20044;-67
2022/03/05 09:58:16;;;;;;;10.60;1.13;;;;;;;-149.78;100.00;50526.22;4793226;29;20054;-67
2022/03/05 10:00:43;;;;;;;9.80;1.50;;;;;;;-149.78;100.00;50549.69;4779569;29;20697;-68
2022/03/05 10:03:12;;;;;;;9.13;1.48;;;;;;;-149.78;100.00;50506.66;4791946;29;20039;-68
2022/03/05 10:05:38;;;;;;;8.43;1.20;;;;;;;-149.78;100.00;50535.97;4795143;29;20498;-67
2022/03/05 10:08:15;;;;;;;9.57;1.58;;;;;;;-149.78;100.00;50516.44;4794741;29;20040;-67
2022/03/05 10:10:56;;;;;;;5.80;1.38;;;;;;;-149.78;100.00;50541.84;4771472;29;20039;-67
2022/03/05 10:13:26;;;;;;;5.60;1.20;;;;;;;-149.78;100.00;50512.50;4802871;29;20434;-68
2022/03/05 10:15:55;;;;;;;5.25;1.30;;;;;;;-149.78;100.00;50518.38;4800840;29;20035;-68
2022/03/05 10:18:27;;;;;;;13.70;1.38;;;;;;;-149.78;100.00;50530.13;4798602;29;20053;-67
2022/03/05 10:20:53;;;;;;;5.40;1.27;;;;;;;-149.78;100.00;50526.22;4796881;29;20039;-67
2022/03/05 10:23:20;;;;;;;5.53;1.25;;;;;;;-149.78;100.00;50514.47;4800011;29;20039;-67
2022/03/05 10:25:54;;;;;;;7.40;1.58;;;;;;;-149.78;100.00;50537.94;4773308;30;20043;-69
2022/03/05 10:28:27;;;;;;;5.28;1.17;;;;;;;-149.78;100.00;50516.44;4793045;29;20039;-67
2022/03/05 10:30:55;;;;;;;11.60;1.63;;;;;;;-149.78;100.00;50494.91;4798519;29;20067;-66
2022/03/05 10:33:32;;;;;;;5.53;1.20;;;;;;;-149.78;100.00;50530.13;4794282;29;20456;-68
2022/03/05 10:36:06;;;;;;;8.90;1.55;;;;;;;-149.78;100.00;50526.22;4795135;29;20039;-68
2022/03/05 10:38:45;;;;;;;6.57;1.27;;;;;;;-149.78;100.00;50535.97;4777632;30;20031;-68
2022/03/05 10:41:11;;;;;;;8.20;1.70;;;;;;;-149.78;100.00;50522.28;4789059;30;20046;-68
2022/03/05 10:43:37;;;;;;;6.63;1.33;;;;;;;-149.78;100.00;50518.38;4788982;30;20118;-68
2022/03/05 10:46:03;;;;;;;4.43;1.20;;;;;;;-149.78;100.00;50549.69;4790696;29;20117;-68
2022/03/05 10:48:33;;;;;;;4.45;1.00;;;;;;;-149.78;100.00;50502.75;4803799;29;20475;-67
2022/03/05 10:51:09;;;;;;;11.23;1.27;;;;;;;-149.78;100.00;50510.56;4794028;29;20425;-68
2022/03/05 10:53:36;;;;;;;8.27;1.48;;;;;;;-149.78;100.00;50545.75;4789665;29;20387;-68
2022/03/05 10:56:30;;;;;;;5.40;1.02;;;;;;;-149.78;100.00;50537.94;4796351;29;20043;-68
2022/03/05 10:59:12;;;;;;;6.95;1.42;;;;;;;-149.78;100.00;50471.44;4795584;29;20042;-68
2022/03/05 11:01:43;;;;;;;6.90;1.45;;;;;;;-149.78;100.00;50537.94;4802154;29;20046;-68
2022/03/05 11:04:11;;;;;;;5.78;1.20;;;;;;;-149.78;100.00;50539.91;4802621;29;20091;-68
2022/03/05 11:06:40;;;;;;;7.78;1.70;;;;;;;-149.78;100.00;50526.22;4798855;29;20046;-68
2022/03/05 11:09:07;;;;;;;10.77;1.90;;;;;;;-149.78;100.00;50502.75;4796402;29;20137;-68